Time;durP1;ratioP1;P1;durP2;ratioP2;P2;SDS_P1;SDS_P2;PMS_P1;PMS_P2;Temp;Humidity;BMP_temperature;BMP_pressure;BME280_temperature;BME280_humidity;BME280_pressure;Samples;Min_cycle;Max_cycle;Signal;HPM_P1;HPM_P2
2024/02/02 00:00:07;;;;;;;38.00;22.00;;;;;;;2.94;83.39;99023.23;79697;1295;3021077;-70
2024/02/02 00:02:39;;;;;;;44.10;24.30;;;;;;;2.77;83.88;99021.26;78213;1300;3051480;-74
2024/02/02 00:05:06;;;;;;;44.30;24.10;;;;;;;2.54;84.66;99022.41;79654;1299;3013004;-74
2024/02/02 00:07:33;;;;;;;46.80;25.80;;;;;;;2.29;86.18;99016.52;79667;1300;3013471;-73
2024/02/02 00:10:01;;;;;;;42.50;24.70;;;;;;;2.27;86.60;99011.58;78415;1298;3057427;-70
2024/02/02 00:12:28;;;;;;;39.10;20.10;;;;;;;2.43;85.80;99004.65;79688;1300;3013204;-68
2024/02/02 00:14:54;;;;;;;42.30;22.60;;;;;;;2.86;85.67;99012.27;79721;1297;3012943;-70
2024/02/02 00:17:22;;;;;;;40.80;22.50;;;;;;;3.42;83.09;99011.59;78387;1300;3026493;-67
2024/02/02 00:19:49;;;;;;;47.50;22.90;;;;;;;3.54;82.48;99002.64;79425;1299;3013147;-71
2024/02/02 00:22:16;;;;;;;44.40;23.70;;;;;;;3.38;82.23;98996.68;79465;1295;3013421;-74
2024/02/02 00:24:44;;;;;;;44.70;23.20;;;;;;;2.99;82.89;98999.88;78228;1295;3056108;-73
2024/02/02 00:27:11;;;;;;;44.90;24.50;;;;;;;2.67;84.28;99010.20;79554;1297;3013023;-65
2024/02/02 00:29:37;;;;;;;43.70;24.40;;;;;;;2.37;85.72;99011.41;79383;1300;3013925;-69
2024/02/02 00:32:05;;;;;;;49.90;26.10;;;;;;;2.32;85.97;99008.30;78283;1297;3026706;-71
2024/02/02 00:34:32;;;;;;;49.70;25.20;;;;;;;2.12;86.59;99001.88;79567;1299;3013559;-75
2024/02/02 00:36:58;;;;;;;42.50;21.20;;;;;;;2.03;87.10;99002.35;79555;1295;3011584;-69
2024/02/02 00:39:26;;;;;;;42.40;23.30;;;;;;;2.34;87.53;98998.04;78196;1295;3025579;-72
2024/02/02 00:41:53;;;;;;;43.80;23.20;;;;;;;2.90;85.47;98989.64;79565;1295;3020597;-71
2024/02/02 00:44:20;;;;;;;47.60;26.00;;;;;;;2.87;84.84;98990.30;79511;1295;3011793;-69
2024/02/02 00:46:48;;;;;;;43.80;25.40;;;;;;;2.50;85.09;98988.68;78482;1300;3026047;-74
2024/02/02 00:49:15;;;;;;;45.30;24.50;;;;;;;2.29;86.08;98983.02;79554;1295;3019310;-70
2024/02/02 00:51:42;;;;;;;45.30;26.40;;;;;;;2.22;86.28;98981.70;79456;1298;3011809;-72
2024/02/02 00:54:10;;;;;;;45.90;25.20;;;;;;;1.97;87.17;98978.88;78406;1296;3025414;-69
2024/02/02 00:56:36;;;;;;;51.20;26.00;;;;;;;1.72;88.29;98976.76;79468;1298;3013111;-74
2024/02/02 00:59:03;;;;;;;44.10;25.30;;;;;;;1.57;89.45;98975.87;79459;1300;3011489;-73
2024/02/02 01:01:31;;;;;;;40.00;22.70;;;;;;;1.78;88.90;98978.65;78303;1298;3028379;-72
2024/02/02 01:03:58;;;;;;;38.30;22.50;;;;;;;2.22;88.02;98976.16;79804;1294;3013001;-67
2024/02/02 01:06:24;;;;;;;41.90;23.60;;;;;;;2.34;87.15;98977.31;79667;1297;3012047;-69
2024/02/02 01:08:52;;;;;;;39.20;21.80;;;;;;;2.41;86.86;98972.54;78458;1297;3027085;-72
2024/02/02 01:11:19;;;;;;;45.30;24.70;;;;;;;2.32;86.10;98976.84;79774;1294;3012947;-68
2024/02/02 01:13:45;;;;;;;47.40;25.00;;;;;;;2.20;86.84;98977.28;79728;1294;3012055;-65
2024/02/02 01:16:14;;;;;;;43.20;22.80;;;;;;;2.01;86.60;98964.42;78725;1297;3026306;-71
2024/02/02 01:18:41;;;;;;;44.20;24.30;;;;;;;1.87;87.17;98967.45;80041;1297;3014166;-67
2024/02/02 01:21:08;;;;;;;40.60;22.10;;;;;;;1.74;87.79;98965.31;80403;1295;3011534;-71
2024/02/02 01:23:36;;;;;;;45.00;23.30;;;;;;;2.21;87.63;98965.30;78838;1293;3055332;-76
2024/02/02 01:26:04;;;;;;;46.30;23.40;;;;;;;2.77;85.72;98966.77;79706;1294;3019706;-71
2024/02/02 01:28:30;;;;;;;45.30;24.80;;;;;;;2.47;85.91;98960.06;79736;1295;3013462;-72
2024/02/02 01:30:58;;;;;;;41.40;22.90;;;;;;;2.38;86.04;98955.71;78271;1294;3052793;-70
2024/02/02 01:33:25;;;;;;;43.40;23.90;;;;;;;2.32;85.62;98947.98;80074;1295;3013725;-73
2024/02/02 01:35:51;;;;;;;47.10;24.30;;;;;;;2.08;86.28;98953.66;79703;1295;3011940;-70
2024/02/02 01:38:19;;;;;;;48.30;26.50;;;;;;;1.90;86.69;98955.14;78467;1297;3024791;-75
2024/02/02 01:40:46;;;;;;;34.90;19.30;;;;;;;1.69;87.77;98952.72;79701;1297;3014109;-73
2024/02/02 01:43:12;;;;;;;35.10;18.00;;;;;;;2.16;88.29;98953.73;79626;1297;3013085;-72
2024/02/02 01:45:40;;;;;;;42.20;22.80;;;;;;;2.65;85.96;98950.61;78498;1294;3026489;-75
2024/02/02 01:48:07;;;;;;;44.30;23.40;;;;;;;2.80;85.39;98948.85;79788;1297;3013922;-68
2024/02/02 01:50:34;;;;;;;42.30;23.70;;;;;;;2.55;84.97;98949.59;79565;1297;3011567;-69
2024/02/02 01:53:02;;;;;;;43.20;24.00;;;;;;;2.49;85.08;98948.41;78534;1295;3025836;-72
2024/02/02 01:55:29;;;;;;;47.30;24.80;;;;;;;2.17;85.70;98943.66;79867;1295;3013317;-73
2024/02/02 01:57:55;;;;;;;48.20;24.60;;;;;;;1.96;86.78;98947.30;79629;1295;3011777;-72
2024/02/02 02:00:23;;;;;;;38.20;20.90;;;;;;;1.73;87.76;98954.11;78553;1297;3026003;-74
2024/02/02 02:02:50;;;;;;;36.40;19.70;;;;;;;1.84;88.15;98948.57;79769;1295;3012965;-76
2024/02/02 02:05:16;;;;;;;38.40;20.80;;;;;;;2.29;87.31;98942.37;79953;1294;3011933;-70
2024/02/02 02:07:46;;;;;;;40.10;21.50;;;;;;;2.96;85.08;98937.89;78652;1295;3026074;-68
2024/02/02 02:10:13;;;;;;;39.40;20.90;;;;;;;2.87;84.39;98944.10;79745;1294;3013527;-78
2024/02/02 02:12:40;;;;;;;39.70;20.40;;;;;;;2.76;84.01;98946.05;79662;1295;3011535;-73
2024/02/02 02:15:10;;;;;;;32.10;17.80;;;;;;;2.63;84.22;98948.25;78455;1294;3052172;-71
2024/02/02 02:17:38;;;;;;;43.70;22.20;;;;;;;2.36;84.82;98948.69;79807;1297;3012948;-68
2024/02/02 02:20:10;;;;;;;51.00;23.50;;;;;;;2.07;86.31;98950.41;78393;1300;3028654;-71
2024/02/02 02:22:37;;;;;;;51.80;25.10;;;;;;;2.07;86.34;98944.87;79714;1295;3011547;-71
2024/02/02 02:25:06;;;;;;;37.30;18.50;;;;;;;2.04;86.57;98950.52;78483;1294;3056581;-67
2024/02/02 02:27:33;;;;;;;42.90;20.60;;;;;;;2.67;86.02;98941.02;79805;1295;3014340;-69
2024/02/02 02:30:00;;;;;;;45.90;22.90;;;;;;;3.30;83.23;98940.38;79574;1294;3014831;-77
2024/02/02 02:32:28;;;;;;;37.10;19.10;;;;;;;3.17;82.42;98943.29;78336;1293;3051057;-72
2024/02/02 02:34:54;;;;;;;41.40;20.20;;;;;;;2.96;82.88;98945.48;79657;1294;3013752;-68
2024/02/02 02:37:22;;;;;;;43.00;22.10;;;;;;;2.96;82.65;98941.52;79726;1297;3011112;-73
2024/02/02 02:39:50;;;;;;;39.40;19.80;;;;;;;2.62;84.01;98944.85;78503;1295;3057232;-72
2024/02/02 02:42:17;;;;;;;42.00;22.00;;;;;;;2.57;83.80;98949.52;79699;1295;3018726;-72
2024/02/02 02:44:43;;;;;;;44.70;21.90;;;;;;;2.43;84.17;98949.66;79663;1298;3013699;-67
2024/02/02 02:47:12;;;;;;;43.60;23.30;;;;;;;2.35;84.66;98951.33;78550;1294;3026111;-68
2024/02/02 02:49:39;;;;;;;33.20;16.90;;;;;;;2.11;86.12;98954.41;79608;1294;3013580;-68
2024/02/02 02:52:06;;;;;;;36.30;19.70;;;;;;;2.85;85.52;98954.90;79550;1294;3011626;-73
2024/02/02 02:54:34;;;;;;;35.80;18.60;;;;;;;3.41;82.79;98954.86;78514;1295;3056868;-71
2024/02/02 02:57:01;;;;;;;43.80;21.70;;;;;;;3.31;82.14;98954.90;79817;1297;3013473;-67
2024/02/02 02:59:30;;;;;;;39.70;21.30;;;;;;;3.21;82.33;98959.07;79569;1294;3013449;-66
2024/02/02 03:01:59;;;;;;;38.70;21.70;;;;;;;2.95;83.11;98957.46;78385;1297;3052517;-68
2024/02/02 03:04:25;;;;;;;45.80;24.70;;;;;;;2.89;83.18;98964.61;79752;1294;3015008;-72
2024/02/02 03:06:52;;;;;;;47.60;26.70;;;;;;;2.60;83.72;98965.85;79529;1294;3011492;-68
2024/02/02 03:09:20;;;;;;;46.10;25.40;;;;;;;2.29;85.65;98970.38;78504;1296;3057104;-73
2024/02/02 03:11:46;;;;;;;43.60;23.90;;;;;;;2.34;85.89;98969.52;79642;1295;3012915;-68
2024/02/02 03:14:13;;;;;;;39.80;20.20;;;;;;;2.29;86.37;98972.80;79421;1294;3012926;-67
2024/02/02 03:16:42;;;;;;;36.00;19.80;;;;;;;2.90;85.81;98971.82;78334;1294;3025134;-67
2024/02/02 03:19:08;;;;;;;38.90;20.80;;;;;;;3.22;84.36;98966.48;79349;1297;3019427;-69
2024/02/02 03:21:35;;;;;;;37.40;19.70;;;;;;;3.54;83.40;98970.27;79581;1295;3011706;-67
2024/02/02 03:24:05;;;;;;;39.40;20.40;;;;;;;3.46;82.43;98969.20;78462;1298;3027480;-70
2024/02/02 03:26:32;;;;;;;37.00;18.30;;;;;;;3.13;83.01;98966.65;79546;1294;3013333;-70
2024/02/02 03:28:58;;;;;;;34.40;19.50;;;;;;;2.91;83.86;98967.14;79662;1294;3012970;-71
2024/02/02 03:31:26;;;;;;;43.60;22.10;;;;;;;2.79;83.82;98965.84;78557;1294;3052536;-68
2024/02/02 03:33:53;;;;;;;38.70;21.70;;;;;;;2.51;85.45;98967.17;79704;1295;3011637;-70
2024/02/02 03:36:19;;;;;;;46.50;24.90;;;;;;;2.53;85.30;98974.02;79737;1294;3012978;-68
2024/02/02 03:38:47;;;;;;;34.90;18.10;;;;;;;2.18;87.37;98967.30;78659;1294;3026367;-71
2024/02/02 03:41:14;;;;;;;39.40;21.30;;;;;;;2.76;86.68;98969.40;79646;1295;3013140;-67
2024/02/02 03:43:41;;;;;;;37.20;20.30;;;;;;;3.18;84.37;98968.02;79646;1297;3011908;-68
2024/02/02 03:46:10;;;;;;;37.70;20.90;;;;;;;3.28;83.46;98968.50;78397;1297;3054266;-67
2024/02/02 03:48:36;;;;;;;40.30;23.70;;;;;;;3.13;83.72;98972.70;79787;1295;3013373;-66
2024/02/02 03:51:04;;;;;;;45.50;22.80;;;;;;;3.05;84.40;98974.41;79555;1294;3011649;-70
2024/02/02 03:53:33;;;;;;;41.30;24.20;;;;;;;2.91;84.32;98973.54;78448;1297;3055960;-64
2024/02/02 03:55:59;;;;;;;43.40;24.00;;;;;;;2.79;85.14;98976.38;79728;1297;3015089;-73
2024/02/02 03:58:27;;;;;;;44.80;24.20;;;;;;;2.73;85.40;98975.21;79704;1295;3013478;-65
2024/02/02 04:00:56;;;;;;;48.30;25.90;;;;;;;2.59;86.08;98974.16;78266;1297;3052536;-67
2024/02/02 04:03:24;;;;;;;30.60;18.00;;;;;;;2.44;87.44;98974.67;79989;1294;3014140;-67
2024/02/02 04:05:52;;;;;;;31.50;17.50;;;;;;;2.94;86.57;98979.48;80332;1294;3011622;-71
2024/02/02 04:08:20;;;;;;;36.60;20.80;;;;;;;3.54;84.27;98986.22;79746;1294;3056480;-71
2024/02/02 04:10:48;;;;;;;33.90;19.20;;;;;;;3.73;83.39;98985.78;79583;1294;3012674;-71
2024/02/02 04:13:15;;;;;;;36.90;19.50;;;;;;;3.32;83.42;98985.34;79694;1294;3011643;-67
2024/02/02 04:15:44;;;;;;;36.10;21.80;;;;;;;3.20;83.86;98988.18;78452;1297;3052801;-70
2024/02/02 04:18:10;;;;;;;37.90;20.20;;;;;;;2.90;85.09;98991.05;79646;1297;3012836;-67
2024/02/02 04:20:37;;;;;;;46.60;22.60;;;;;;;2.80;85.65;98992.95;79896;1294;3011654;-68
2024/02/02 04:23:05;;;;;;;44.90;22.80;;;;;;;2.72;86.18;98990.65;78565;1294;3056431;-67
2024/02/02 04:25:32;;;;;;;51.30;23.80;;;;;;;2.68;86.18;98994.77;80099;1295;3013054;-74
2024/02/02 04:27:58;;;;;;;40.70;17.90;;;;;;;2.71;85.93;98996.58;79629;1294;3011693;-71
2024/02/02 04:30:29;;;;;;;37.50;19.90;;;;;;;3.06;85.86;98996.33;78265;1297;3026044;-70
2024/02/02 04:32:58;;;;;;;39.00;20.90;;;;;;;3.76;83.54;98991.40;79665;1297;3013571;-76
2024/02/02 04:35:26;;;;;;;39.00;21.90;;;;;;;3.79;82.18;98998.52;78760;1295;3068835;-68
2024/02/02 04:37:53;;;;;;;40.90;22.10;;;;;;;3.59;82.27;98994.12;79892;1294;3019234;-68
2024/02/02 04:40:19;;;;;;;46.30;22.90;;;;;;;3.21;83.28;99003.23;79637;1295;3011704;-68
2024/02/02 04:42:47;;;;;;;43.60;22.70;;;;;;;3.16;83.79;99004.45;78414;1297;3028668;-70
2024/02/02 04:45:14;;;;;;;47.90;23.60;;;;;;;3.02;83.89;99006.00;79736;1297;3011709;-64
2024/02/02 04:47:41;;;;;;;52.10;26.00;;;;;;;2.81;84.81;99009.20;79590;1295;3011591;-67
2024/02/02 04:50:09;;;;;;;45.90;24.40;;;;;;;2.77;85.27;99007.77;78271;1294;3026807;-74
2024/02/02 04:52:36;;;;;;;51.50;25.90;;;;;;;2.60;85.76;99007.52;79488;1294;3014581;-70
2024/02/02 04:55:03;;;;;;;42.90;20.50;;;;;;;2.66;86.48;99006.96;79601;1294;3011895;-71
2024/02/02 04:57:32;;;;;;;47.70;22.20;;;;;;;3.02;85.38;99006.33;78346;1294;3052588;-69
2024/02/02 04:59:58;;;;;;;46.80;21.10;;;;;;;3.69;83.15;99011.75;79725;1297;3013614;-70
2024/02/02 05:02:25;;;;;;;42.90;19.80;;;;;;;3.75;81.99;99016.36;79961;1294;3011835;-67
2024/02/02 05:04:54;;;;;;;39.00;22.10;;;;;;;3.50;82.03;99018.02;78472;1297;3067899;-69
2024/02/02 05:07:20;;;;;;;44.40;20.80;;;;;;;3.39;81.91;99019.84;79443;1295;3013610;-66
2024/02/02 05:09:47;;;;;;;37.70;20.90;;;;;;;3.22;82.32;99027.42;79731;1295;3013576;-73
2024/02/02 05:12:16;;;;;;;40.10;20.20;;;;;;;3.05;82.98;99035.67;78333;1294;3053357;-64
2024/02/02 05:14:42;;;;;;;36.10;21.20;;;;;;;2.86;83.81;99036.52;79767;1297;3014817;-69
2024/02/02 05:17:09;;;;;;;46.90;24.00;;;;;;;2.81;83.97;99042.57;79769;1297;3013460;-70
2024/02/02 05:19:37;;;;;;;46.00;23.40;;;;;;;2.68;84.72;99045.45;78415;1295;3069549;-69
2024/02/02 05:22:03;;;;;;;40.20;21.90;;;;;;;2.77;84.28;99053.80;79647;1295;3013688;-70
2024/02/02 05:24:30;;;;;;;46.50;21.50;;;;;;;2.57;85.35;99057.94;79362;1295;3011844;-63
2024/02/02 05:26:58;;;;;;;37.80;18.70;;;;;;;2.99;84.48;99057.34;78620;1297;3026814;-65
2024/02/02 05:29:25;;;;;;;40.10;20.00;;;;;;;3.35;82.99;99051.86;79912;1297;3018156;-72
2024/02/02 05:31:51;;;;;;;39.10;19.80;;;;;;;3.33;82.19;99062.33;79453;1297;3013745;-67
2024/02/02 05:34:19;;;;;;;37.80;19.70;;;;;;;3.26;82.68;99052.38;78300;1297;3025789;-72
2024/02/02 05:36:46;;;;;;;34.90;17.70;;;;;;;3.17;82.39;99054.75;79507;1295;3019006;-68
2024/02/02 05:39:13;;;;;;;35.90;18.30;;;;;;;2.98;82.90;99057.88;79675;1294;3013633;-67
2024/02/02 05:41:41;;;;;;;32.00;18.10;;;;;;;2.81;83.47;99057.26;78399;1297;3026500;-76
2024/02/02 05:44:07;;;;;;;34.70;17.20;;;;;;;2.55;83.91;99069.40;79962;1298;3018288;-69
2024/02/02 05:46:34;;;;;;;33.60;18.10;;;;;;;2.40;84.55;99071.66;79942;1297;3011808;-69
2024/02/02 05:49:02;;;;;;;34.30;18.00;;;;;;;2.39;84.96;99064.95;78968;1300;3026288;-66
2024/02/02 05:51:29;;;;;;;25.60;13.60;;;;;;;2.46;84.93;99072.14;80262;1295;3012938;-65
2024/02/02 05:53:55;;;;;;;33.70;14.50;;;;;;;2.99;83.60;99071.16;79815;1294;3012136;-73
2024/02/02 05:56:24;;;;;;;31.80;14.90;;;;;;;3.50;81.44;99072.58;78448;1295;3027076;-70
2024/02/02 05:58:50;;;;;;;31.50;16.10;;;;;;;3.52;80.25;99074.77;79733;1297;3013581;-73
2024/02/02 06:01:17;;;;;;;30.30;16.20;;;;;;;3.23;80.65;99082.41;79525;1297;3011589;-67
2024/02/02 06:03:45;;;;;;;39.40;18.10;;;;;;;3.03;81.63;99076.21;78284;1294;3026495;-73
2024/02/02 06:06:11;;;;;;;34.40;19.60;;;;;;;3.09;81.22;99079.12;79622;1297;3012783;-72
2024/02/02 06:08:38;;;;;;;33.40;19.60;;;;;;;2.93;81.92;99083.31;79510;1297;3011673;-75
2024/02/02 06:11:06;;;;;;;36.10;20.40;;;;;;;2.85;81.92;99086.19;78357;1297;3028659;-77
2024/02/02 06:13:33;;;;;;;33.60;18.40;;;;;;;2.73;82.18;99085.58;79662;1294;3018947;-69
2024/02/02 06:16:00;;;;;;;38.90;19.90;;;;;;;2.57;82.72;99089.74;79509;1297;3013582;-67
2024/02/02 06:18:28;;;;;;;39.60;20.10;;;;;;;2.61;82.43;99096.03;78364;1294;3026454;-66
2024/02/02 06:20:54;;;;;;;37.60;19.30;;;;;;;2.65;82.13;99098.30;79635;1294;3013307;-68
2024/02/02 06:23:21;;;;;;;28.50;14.90;;;;;;;2.55;82.54;99094.64;79663;1297;3011665;-72
2024/02/02 06:25:49;;;;;;;35.60;14.80;;;;;;;3.14;81.58;99100.05;78362;1294;3027720;-66
2024/02/02 06:28:16;;;;;;;28.00;13.40;;;;;;;3.66;79.17;99092.77;79719;1301;3012511;-74
2024/02/02 06:30:48;;;;;;;30.60;14.80;;;;;;;3.59;78.40;99095.63;79496;1295;3013767;-76
2024/02/02 06:33:16;;;;;;;29.30;14.90;;;;;;;3.49;78.19;99092.21;78311;1297;3069091;-71
2024/02/02 06:35:45;;;;;;;31.20;16.10;;;;;;;3.38;78.38;99094.67;79597;1294;3013694;-69
2024/02/02 06:38:14;;;;;;;37.60;18.80;;;;;;;3.04;79.21;99092.98;79013;1295;3013489;-68
2024/02/02 06:40:41;;;;;;;38.00;18.00;;;;;;;2.80;80.50;99100.39;79809;1295;3013625;-70
2024/02/02 06:43:07;;;;;;;35.40;17.40;;;;;;;2.73;80.80;99091.27;79719;1294;3011594;-74
2024/02/02 06:45:35;;;;;;;34.50;17.30;;;;;;;2.70;81.01;99101.27;78451;1299;3027293;-71
2024/02/02 06:48:02;;;;;;;32.20;16.90;;;;;;;2.71;80.74;99100.69;79790;1295;3013105;-72
2024/02/02 06:50:30;;;;;;;35.80;18.80;;;;;;;2.63;80.99;99103.58;79563;1297;3011692;-69
2024/02/02 06:52:58;;;;;;;34.20;17.80;;;;;;;2.53;81.68;99108.39;78593;1297;3054455;-71
2024/02/02 06:55:24;;;;;;;33.00;17.20;;;;;;;2.57;81.48;99104.45;79510;1297;3012933;-68
2024/02/02 06:57:51;;;;;;;28.90;14.40;;;;;;;2.48;82.14;99108.55;79817;1295;3011507;-65
2024/02/02 07:00:19;;;;;;;29.40;13.60;;;;;;;3.00;80.96;99114.38;78535;1297;3026694;-73
2024/02/02 07:02:45;;;;;;;21.70;12.40;;;;;;;3.41;79.17;99112.59;79602;1295;3013111;-66
2024/02/02 07:05:13;;;;;;;30.50;15.40;;;;;;;3.44;78.28;99112.63;79662;1295;3012650;-66
2024/02/02 07:07:41;;;;;;;24.40;12.70;;;;;;;3.33;78.40;99109.77;78250;1297;3028293;-73
2024/02/02 07:10:14;;;;;;;25.90;13.00;;;;;;;3.36;78.19;99111.36;79610;1295;3018694;-65
2024/02/02 07:12:45;;;;;;;25.70;11.70;;;;;;;3.25;78.18;99107.97;78621;1298;3050826;-68
2024/02/02 07:15:18;;;;;;;20.60;10.90;;;;;;;2.90;79.28;99118.53;79616;1297;3011879;-70
2024/02/02 07:17:46;;;;;;;20.40;9.90;;;;;;;2.90;79.76;99109.70;78570;1298;3052835;-68
2024/02/02 07:20:22;;;;;;;19.90;9.90;;;;;;;2.70;79.99;99111.44;79762;1297;3012774;-67
2024/02/02 07:22:50;;;;;;;17.00;9.60;;;;;;;2.67;80.58;99109.98;78244;1297;3056994;-69
2024/02/02 07:25:18;;;;;;;17.90;8.80;;;;;;;2.60;80.37;99117.83;79508;1295;3012206;-72
2024/02/02 07:27:51;;;;;;;16.40;8.80;;;;;;;2.55;80.88;99110.58;79623;1299;3011627;-70
2024/02/02 07:30:42;;;;;;;14.90;8.50;;;;;;;2.59;80.89;99117.86;78585;1297;3052297;-68
2024/02/02 07:33:20;;;;;;;16.60;7.90;;;;;;;2.65;80.65;99120.96;78304;1295;3051206;-69
2024/02/02 07:35:48;;;;;;;20.80;9.70;;;;;;;2.59;80.69;99122.70;78348;1295;3068453;-69
2024/02/02 07:38:45;;;;;;;14.90;8.10;;;;;;;2.68;80.97;99118.60;79561;1297;3018944;-68
2024/02/02 07:41:16;;;;;;;17.00;7.40;;;;;;;3.44;78.17;99122.50;78283;1297;3049833;-71
2024/02/02 07:43:43;;;;;;;17.00;7.90;;;;;;;3.70;76.89;99130.21;79479;1295;3011460;-70
2024/02/02 07:46:12;;;;;;;13.80;7.80;;;;;;;3.80;76.11;99123.06;79133;1297;3011741;-74
2024/02/02 07:48:40;;;;;;;19.50;9.50;;;;;;;3.70;75.84;99132.45;79640;1294;3018436;-74
2024/02/02 07:51:07;;;;;;;19.70;10.40;;;;;;;3.40;76.56;99133.91;79536;1295;3011592;-69
2024/02/02 07:53:35;;;;;;;21.20;9.90;;;;;;;3.35;76.93;99131.16;78661;1294;3051419;-66
2024/02/02 07:56:02;;;;;;;23.10;10.80;;;;;;;3.33;76.49;99141.06;79533;1295;3018451;-67
2024/02/02 07:58:29;;;;;;;26.20;13.40;;;;;;;3.18;76.99;99131.75;79710;1293;3011669;-69
2024/02/02 08:00:57;;;;;;;21.40;12.60;;;;;;;3.27;76.79;99131.96;78342;1297;3026194;-65
2024/02/02 08:03:24;;;;;;;22.10;11.40;;;;;;;3.24;77.00;99132.09;79827;1299;3013010;-71
2024/02/02 08:05:51;;;;;;;25.50;11.90;;;;;;;3.33;76.60;99134.15;79638;1297;3011644;-72
2024/02/02 08:08:19;;;;;;;16.90;8.20;;;;;;;3.24;76.28;99148.67;78551;1298;3050906;-66
2024/02/02 08:10:45;;;;;;;24.70;12.00;;;;;;;3.23;76.53;99142.65;79552;1297;3013201;-70
2024/02/02 08:13:13;;;;;;;22.60;11.40;;;;;;;3.35;76.28;99143.96;79992;1295;3013146;-72
2024/02/02 08:15:42;;;;;;;19.50;11.30;;;;;;;3.39;75.99;99146.43;78235;1297;3049791;-71
2024/02/02 08:18:08;;;;;;;24.90;10.50;;;;;;;3.43;75.93;99151.61;79738;1297;3021354;-69
2024/02/02 08:20:35;;;;;;;21.10;10.40;;;;;;;3.46;75.74;99150.34;79480;1298;3012886;-68
2024/02/02 08:23:04;;;;;;;19.80;10.00;;;;;;;3.41;75.70;99152.73;78458;1297;3026287;-63
2024/02/02 08:25:30;;;;;;;19.80;8.80;;;;;;;3.35;75.76;99148.09;79684;1294;3015037;-69
2024/02/02 08:27:57;;;;;;;17.20;8.70;;;;;;;3.27;75.91;99149.27;79743;1293;3011627;-71
2024/02/02 08:30:25;;;;;;;15.70;8.20;;;;;;;3.34;75.77;99143.48;78457;1297;3050539;-65
2024/02/02 08:32:52;;;;;;;11.60;7.00;;;;;;;3.27;75.54;99147.70;79717;1297;3013320;-69
2024/02/02 08:35:22;;;;;;;15.80;7.30;;;;;;;3.33;75.52;99154.95;79747;1300;3011976;-66
2024/02/02 08:37:58;;;;;;;16.60;7.50;;;;;;;3.28;75.59;99160.31;78418;1295;3052643;-65
2024/02/02 08:40:29;;;;;;;13.40;7.20;;;;;;;3.30;75.43;99156.27;78402;1295;3056921;-72
2024/02/02 08:42:55;;;;;;;14.30;7.20;;;;;;;3.32;75.22;99160.34;79677;1297;3011213;-68
2024/02/02 08:45:43;;;;;;;15.00;7.30;;;;;;;3.32;75.07;99166.21;79036;1297;3011866;-68
2024/02/02 08:48:23;;;;;;;14.90;6.00;;;;;;;3.45;74.57;99158.66;78439;1297;3050618;-63
2024/02/02 08:50:53;;;;;;;13.30;5.70;;;;;;;3.46;74.37;99160.53;78221;1297;3054582;-70
2024/02/02 08:53:20;;;;;;;8.70;4.80;;;;;;;3.41;73.93;99168.86;79786;1297;3013157;-73
2024/02/02 08:55:49;;;;;;;11.50;5.60;;;;;;;3.42;73.67;99157.73;79804;1295;3011656;-71
2024/02/02 08:58:24;;;;;;;9.10;4.40;;;;;;;3.37;73.51;99164.66;78530;1295;3055942;-68
2024/02/02 09:00:53;;;;;;;8.90;5.60;;;;;;;3.27;73.54;99164.15;79037;1294;3011696;-67
2024/02/02 09:03:26;;;;;;;10.30;4.90;;;;;;;3.33;73.15;99157.52;79827;1295;3013071;-69
2024/02/02 09:05:56;;;;;;;9.80;4.90;;;;;;;3.39;73.00;99154.38;78512;1297;3049974;-70
2024/02/02 09:08:32;;;;;;;11.90;5.50;;;;;;;3.50;72.64;99152.42;79945;1295;3011337;-70
2024/02/02 09:11:02;;;;;;;13.60;5.30;;;;;;;3.47;72.93;99155.64;78382;1297;3051716;-70
2024/02/02 09:13:30;;;;;;;13.20;5.10;;;;;;;3.58;72.80;99148.98;79940;1297;3013270;-70
2024/02/02 09:15:59;;;;;;;17.40;6.40;;;;;;;3.70;72.79;99142.50;79062;1295;3013334;-65
2024/02/02 09:18:38;;;;;;;12.40;5.90;;;;;;;3.69;72.93;99141.49;79490;1296;3013041;-71
2024/02/02 09:21:10;;;;;;;10.40;5.80;;;;;;;3.91;72.58;99134.09;78231;1300;3053858;-74
2024/02/02 09:23:36;;;;;;;13.00;6.40;;;;;;;3.95;72.22;99131.87;79417;1297;3011889;-68
2024/02/02 09:26:11;;;;;;;12.60;6.00;;;;;;;4.04;72.01;99129.77;78113;1300;3026279;-71
2024/02/02 09:28:44;;;;;;;14.70;6.20;;;;;;;4.14;71.77;99129.21;79777;1300;3011956;-70
2024/02/02 09:31:22;;;;;;;9.40;5.10;;;;;;;4.08;71.60;99131.87;78248;1295;3067561;-72
2024/02/02 09:33:50;;;;;;;16.90;6.10;;;;;;;4.07;71.29;99126.34;78279;1300;3051839;-71
2024/02/02 09:36:18;;;;;;;12.00;5.50;;;;;;;4.08;71.27;99122.16;79697;1295;3014994;-68
2024/02/02 09:39:00;;;;;;;13.70;4.50;;;;;;;4.13;70.39;99131.52;79646;1296;3012999;-73
2024/02/02 09:41:54;;;;;;;6.80;3.80;;;;;;;4.02;70.43;99126.04;78229;1295;3051170;-73
2024/02/02 09:44:28;;;;;;;10.70;4.80;;;;;;;3.80;71.28;99124.64;78385;1300;3051813;-73
2024/02/02 09:46:59;;;;;;;13.30;5.30;;;;;;;3.75;71.81;99119.43;79664;1300;3012066;-70
2024/02/02 09:49:33;;;;;;;8.30;4.90;;;;;;;3.83;71.71;99127.47;78159;1294;3068906;-70
2024/02/02 09:52:10;;;;;;;9.70;4.30;;;;;;;3.82;71.58;99128.52;79332;1295;3013775;-72
2024/02/02 09:54:55;;;;;;;9.50;4.60;;;;;;;3.75;70.75;99119.96;78217;1297;3056771;-67
2024/02/02 09:57:37;;;;;;;11.40;4.90;;;;;;;3.73;70.28;99114.34;78268;1300;3048737;-70
2024/02/02 10:00:28;;;;;;;15.80;8.10;;;;;;;3.88;69.40;99116.71;78318;1295;3052757;-68
2024/02/02 10:03:23;;;;;;;20.90;9.20;;;;;;;3.88;69.54;99120.54;78076;1297;3050807;-68
2024/02/02 10:06:04;;;;;;;15.20;7.20;;;;;;;3.84;69.23;99121.53;78028;1298;3053147;-74
2024/02/02 10:09:29;;;;;;;18.00;6.40;;;;;;;3.89;69.11;99117.17;78224;1300;3052710;-66
2024/02/02 10:12:09;;;;;;;11.70;4.00;;;;;;;3.84;68.10;99124.13;77774;1307;3069035;-69
2024/02/02 10:15:04;;;;;;;6.30;3.30;;;;;;;3.81;67.85;99129.08;77969;1304;3051965;-69
2024/02/02 10:17:42;;;;;;;6.30;3.30;;;;;;;3.96;67.24;99121.75;78318;1295;3056918;-65
2024/02/02 10:20:10;;;;;;;12.20;4.10;;;;;;;4.09;65.66;99121.43;78670;1295;3048821;-64
2024/02/02 10:22:58;;;;;;;10.30;3.80;;;;;;;4.16;65.17;99117.14;79812;1295;3018929;-68
2024/02/02 10:25:54;;;;;;;9.20;3.70;;;;;;;4.28;64.76;99117.91;78285;1300;3054319;-68
2024/02/02 10:28:22;;;;;;;6.80;3.10;;;;;;;4.05;62.95;99126.80;78293;1301;3051582;-73
2024/02/02 10:31:07;;;;;;;18.10;4.00;;;;;;;4.11;62.69;99111.63;79385;1300;3013247;-69
2024/02/02 10:33:44;;;;;;;;;;;;;;;4.00;62.31;99120.94;78398;1295;3056638;-69
2024/02/02 10:36:21;;;;;;;14.20;4.20;;;;;;;3.94;62.81;99124.95;78498;1300;3049317;-71
2024/02/02 10:39:17;;;;;;;12.10;3.30;;;;;;;3.89;63.27;99123.95;78275;1299;3053885;-68
2024/02/02 10:42:12;;;;;;;17.80;3.50;;;;;;;3.81;63.75;99124.22;78026;1298;3049638;-69
2024/02/02 10:45:06;;;;;;;9.70;4.30;;;;;;;3.90;63.37;99118.89;78484;1295;3051813;-71
2024/02/02 10:47:41;;;;;;;12.00;4.00;;;;;;;3.92;63.14;99124.51;78272;1300;3052656;-69
2024/02/02 10:50:35;;;;;;;9.60;3.50;;;;;;;3.81;63.41;99119.07;79503;1300;3013745;-71
2024/02/02 10:53:03;;;;;;;8.30;3.30;;;;;;;3.96;63.23;99128.18;78425;1300;3051879;-74
2024/02/02 10:55:54;;;;;;;10.40;3.10;;;;;;;4.04;62.77;99120.94;79797;1298;3011852;-66
2024/02/02 10:58:32;;;;;;;10.80;3.10;;;;;;;4.23;62.63;99122.06;78258;1295;3054008;-73
2024/02/02 11:01:12;;;;;;;9.50;2.80;;;;;;;4.23;62.00;99119.46;78386;1295;3050496;-64
2024/02/02 11:03:46;;;;;;;8.30;2.80;;;;;;;4.17;62.04;99133.42;78164;1300;3051467;-70
2024/02/02 11:06:35;;;;;;;9.30;3.50;;;;;;;4.12;61.81;99125.11;79426;1300;3013474;-66
2024/02/02 11:09:11;;;;;;;8.30;2.40;;;;;;;4.02;61.80;99125.69;78175;1294;3067925;-66
2024/02/02 11:11:41;;;;;;;4.70;2.00;;;;;;;3.99;61.86;99130.66;78269;1301;3050825;-75
2024/02/02 11:14:37;;;;;;;6.50;2.30;;;;;;;4.00;61.77;99134.08;79477;1298;3013360;-71
2024/02/02 11:17:26;;;;;;;6.20;2.40;;;;;;;3.86;62.36;99133.93;77986;1302;3054198;-68
2024/02/02 11:19:57;;;;;;;8.60;2.80;;;;;;;3.93;62.05;99129.86;78193;1300;3048929;-72
2024/02/02 11:22:32;;;;;;;8.90;2.30;;;;;;;3.94;61.66;99147.13;79303;1300;3011638;-68
2024/02/02 11:25:24;;;;;;;7.80;2.40;;;;;;;3.82;61.49;99128.02;78024;1300;3051328;-70